Time;durP1;ratioP1;P1;durP2;ratioP2;P2;SDS_P1;SDS_P2;PMS_P1;PMS_P2;Temp;Humidity;BMP_temperature;BMP_pressure;BME280_temperature;BME280_humidity;BME280_pressure;Samples;Min_cycle;Max_cycle;Signal;HPM_P1;HPM_P2
2023/03/26 00:01:12;;;;;;;26.95;3.70;;;8.70;99.90;;;;;;5138735;27;20019;-64
2023/03/26 00:03:39;;;;;;;23.92;4.63;;;8.70;99.90;;;;;;5139330;27;20023;-64
2023/03/26 00:06:11;;;;;;;21.48;3.95;;;8.80;99.90;;;;;;5137872;27;20096;-64
2023/03/26 00:08:40;;;;;;;27.50;4.68;;;8.80;99.90;;;;;;5138619;27;20027;-64
2023/03/26 00:11:09;;;;;;;23.60;3.88;;;8.80;99.90;;;;;;5120575;27;20027;-64
2023/03/26 00:13:35;;;;;;;21.77;4.05;;;8.90;99.90;;;;;;5139101;27;20114;-64
2023/03/26 00:16:02;;;;;;;24.65;4.15;;;8.80;99.90;;;;;;5138389;27;20038;-64
2023/03/26 00:18:33;;;;;;;23.88;4.15;;;8.80;99.90;;;;;;5137573;27;20027;-64
2023/03/26 00:21:04;;;;;;;27.77;4.03;;;8.80;99.90;;;;;;5138361;27;20046;-64
2023/03/26 00:23:32;;;;;;;23.30;4.13;;;8.80;99.90;;;;;;5138316;27;20023;-64
2023/03/26 00:25:59;;;;;;;19.58;3.65;;;8.80;99.90;;;;;;5138328;27;20031;-65
2023/03/26 00:28:26;;;;;;;24.50;4.35;;;8.90;99.90;;;;;;5138429;27;20033;-64
2023/03/26 00:31:03;;;;;;;24.50;3.17;;;8.90;99.90;;;;;;5138438;27;20358;-64
2023/03/26 00:33:37;;;;;;;18.23;3.45;;;8.90;99.90;;;;;;5138204;27;20277;-64
2023/03/26 00:36:05;;;;;;;23.80;3.83;;;8.90;99.90;;;;;;5138269;27;20027;-64
2023/03/26 00:38:37;;;;;;;25.55;3.38;;;8.90;99.90;;;;;;5137379;27;20348;-64
2023/03/26 00:41:16;;;;;;;24.25;3.67;;;8.90;99.90;;;;;;5137177;27;20085;-65
2023/03/26 00:43:47;;;;;;;18.95;3.40;;;9.00;99.90;;;;;;5138442;27;20039;-65
2023/03/26 00:46:13;;;;;;;23.10;3.95;;;9.10;99.90;;;;;;5138070;27;20300;-65
2023/03/26 00:48:41;;;;;;;19.17;3.15;;;9.10;99.90;;;;;;5137284;27;20129;-64
2023/03/26 00:51:09;;;;;;;22.17;4.68;;;9.20;99.90;;;;;;5138216;27;20418;-64
2023/03/26 00:53:37;;;;;;;19.70;4.28;;;9.10;99.90;;;;;;5137926;27;20031;-64
2023/03/26 00:56:04;;;;;;;21.48;3.53;;;9.10;99.90;;;;;;5137133;27;20122;-65
2023/03/26 00:58:30;;;;;;;22.05;3.58;;;9.20;99.90;;;;;;5137859;27;20042;-65
2023/03/26 01:00:59;;;;;;;25.30;3.80;;;9.20;99.90;;;;;;5137065;28;20023;-64
2023/03/26 01:03:32;;;;;;;24.50;3.42;;;9.20;99.90;;;;;;5138282;27;20062;-62
2023/03/26 01:06:03;;;;;;;;;;;9.20;99.90;;;;;;5137506;28;20027;-64
2023/03/26 01:08:34;;;;;;;22.38;3.13;;;9.20;99.90;;;;;;5140237;27;19911;-64
2023/03/26 01:11:13;;;;;;;23.13;3.35;;;9.20;99.90;;;;;;5141373;27;20115;-63
2023/03/26 01:14:01;;;;;;;17.48;2.90;;;9.30;99.90;;;;;;5142105;27;20088;-63
2023/03/26 01:16:32;;;;;;;16.65;2.80;;;9.30;99.90;;;;;;5141207;27;20042;-62
2023/03/26 01:18:59;;;;;;;14.52;2.63;;;9.30;99.90;;;;;;5141789;27;20027;-61
2023/03/26 01:21:28;;;;;;;18.83;2.60;;;9.20;99.90;;;;;;5142205;27;20027;-62
2023/03/26 01:24:05;;;;;;;20.42;3.13;;;9.10;99.90;;;;;;5123988;27;20023;-61
2023/03/26 01:26:56;;;;;;;19.92;2.65;;;9.00;99.90;;;;;;5142106;27;20030;-61
2023/03/26 01:29:48;;;;;;;15.45;2.42;;;9.00;99.90;;;;;;5142048;27;20030;-61
2023/03/26 01:32:29;;;;;;;19.27;3.30;;;9.10;99.90;;;;;;5141718;27;20388;-61
2023/03/26 01:35:20;;;;;;;19.25;2.40;;;9.10;99.90;;;;;;5141611;27;20054;-62
2023/03/26 01:37:51;;;;;;;15.95;2.30;;;9.00;99.90;;;;;;5141384;27;20034;-63
2023/03/26 01:40:24;;;;;;;19.35;2.85;;;9.00;99.90;;;;;;5124202;27;20372;-61
2023/03/26 01:43:05;;;;;;;15.65;2.70;;;8.90;99.90;;;;;;5141493;27;20273;-62
2023/03/26 01:45:35;;;;;;;15.60;2.75;;;9.00;99.90;;;;;;5141572;27;20288;-62
2023/03/26 01:48:01;;;;;;;20.15;2.97;;;9.00;99.90;;;;;;5141751;27;20308;-62
2023/03/26 01:50:27;;;;;;;24.60;3.75;;;9.00;99.90;;;;;;5141312;27;20023;-62
2023/03/26 01:52:53;;;;;;;17.98;2.95;;;9.00;99.90;;;;;;5123566;27;20050;-62
2023/03/26 01:55:19;;;;;;;21.65;2.85;;;9.10;99.90;;;;;;5140565;27;20303;-62
2023/03/26 01:57:59;;;;;;;15.50;3.03;;;9.10;99.90;;;;;;5140332;27;20399;-62
2023/03/26 02:00:39;;;;;;;21.92;3.67;;;9.00;99.90;;;;;;5140364;27;20348;-62
2023/03/26 02:03:30;;;;;;;21.23;3.13;;;9.00;99.90;;;;;;5141737;27;20140;-62
2023/03/26 02:06:18;;;;;;;16.58;2.85;;;9.10;99.90;;;;;;5140248;27;20043;-62
2023/03/26 02:08:51;;;;;;;20.38;2.97;;;9.10;99.90;;;;;;5123044;27;20395;-62
2023/03/26 02:11:17;;;;;;;19.80;3.17;;;9.00;99.90;;;;;;5140110;27;20122;-62
2023/03/26 02:13:45;;;;;;;18.88;3.20;;;9.00;99.90;;;;;;5140205;27;20084;-62
2023/03/26 02:16:15;;;;;;;24.15;3.47;;;9.00;99.90;;;;;;5141017;27;20031;-62
2023/03/26 02:18:41;;;;;;;20.05;2.85;;;9.00;99.90;;;;;;5140009;27;20031;-62
2023/03/26 02:21:11;;;;;;;19.52;3.35;;;9.00;99.90;;;;;;5140339;27;20288;-62
2023/03/26 02:23:45;;;;;;;15.52;2.40;;;9.10;99.90;;;;;;5139888;27;20027;-62
2023/03/26 02:26:14;;;;;;;19.58;3.35;;;9.20;99.90;;;;;;5140743;27;20023;-62
2023/03/26 02:28:52;;;;;;;13.88;2.45;;;9.30;99.90;;;;;;5139823;27;20319;-62
2023/03/26 02:31:18;;;;;;;20.50;3.15;;;9.30;99.90;;;;;;5140410;27;20031;-62
2023/03/26 02:33:46;;;;;;;25.67;3.00;;;9.30;99.90;;;;;;5139638;27;20459;-62
2023/03/26 02:36:12;;;;;;;16.98;3.33;;;9.40;99.90;;;;;;5139791;27;20027;-63
2023/03/26 02:38:41;;;;;;;21.00;3.03;;;9.50;99.90;;;;;;5139453;27;20309;-63
2023/03/26 02:41:07;;;;;;;14.48;2.40;;;9.60;99.90;;;;;;5139387;27;20126;-63
2023/03/26 02:43:51;;;;;;;18.17;2.90;;;9.60;99.90;;;;;;5139640;27;20023;-63
2023/03/26 02:46:20;;;;;;;15.45;2.53;;;9.70;99.90;;;;;;5139372;27;20122;-63
2023/03/26 02:48:54;;;;;;;17.85;2.85;;;9.70;99.90;;;;;;5139622;27;20354;-62
2023/03/26 02:51:24;;;;;;;12.07;2.63;;;9.80;99.90;;;;;;5140509;27;20027;-63
2023/03/26 02:54:17;;;;;;;12.85;2.47;;;9.80;99.90;;;;;;5139961;27;20042;-62
2023/03/26 02:57:10;;;;;;;18.70;2.92;;;9.80;99.90;;;;;;5139191;27;20038;-62
2023/03/26 03:00:12;;;;;;;21.17;2.92;;;9.80;99.90;;;;;;5135392;27;20039;-62
2023/03/26 03:02:46;;;;;;;17.10;2.80;;;9.80;99.90;;;;;;5139979;27;20265;-63
2023/03/26 03:05:31;;;;;;;15.23;3.15;;;9.70;99.90;;;;;;5139983;27;20389;-62
2023/03/26 03:08:23;;;;;;;15.55;2.80;;;9.70;99.90;;;;;;5128905;27;20305;-62
2023/03/26 03:11:15;;;;;;;19.90;3.10;;;9.70;99.90;;;;;;5110657;27;20035;-62
2023/03/26 03:13:44;;;;;;;14.07;3.42;;;9.70;99.90;;;;;;5138948;27;20367;-63
2023/03/26 03:16:10;;;;;;;18.60;3.17;;;9.70;99.90;;;;;;5121895;27;20095;-63
2023/03/26 03:18:36;;;;;;;15.25;2.90;;;9.70;99.90;;;;;;5121582;27;20035;-63
2023/03/26 03:21:04;;;;;;;14.43;2.95;;;9.60;99.90;;;;;;5104928;27;20038;-63
2023/03/26 03:23:30;;;;;;;15.13;2.75;;;9.60;99.90;;;;;;5138749;27;20030;-63
2023/03/26 03:26:14;;;;;;;18.77;2.97;;;9.70;99.90;;;;;;5123235;27;20028;-63
2023/03/26 03:28:44;;;;;;;16.48;2.97;;;9.70;99.90;;;;;;5138704;27;20034;-63
2023/03/26 03:31:12;;;;;;;18.95;3.17;;;9.70;99.90;;;;;;5138277;27;20103;-63
2023/03/26 03:33:40;;;;;;;15.05;2.85;;;9.70;99.90;;;;;;5138655;27;20039;-63
2023/03/26 03:36:09;;;;;;;14.82;2.53;;;9.50;99.90;;;;;;5138561;27;20122;-63
2023/03/26 03:38:40;;;;;;;20.58;3.45;;;9.50;99.90;;;;;;5138559;27;20031;-63
2023/03/26 03:41:08;;;;;;;16.08;2.90;;;9.50;99.90;;;;;;5138243;27;20141;-63
2023/03/26 03:43:37;;;;;;;14.27;2.67;;;9.50;99.90;;;;;;5138338;27;20390;-63
2023/03/26 03:46:13;;;;;;;18.05;3.35;;;9.50;99.90;;;;;;5138236;27;20080;-63
2023/03/26 03:48:48;;;;;;;16.00;2.88;;;9.50;99.90;;;;;;5138387;27;20027;-63
2023/03/26 03:51:17;;;;;;;20.27;3.67;;;9.50;99.90;;;;;;5122093;27;20057;-64
2023/03/26 03:54:09;;;;;;;18.05;3.40;;;9.50;99.90;;;;;;5122766;27;20104;-63
2023/03/26 03:56:55;;;;;;;12.07;3.25;;;9.50;99.90;;;;;;5124626;27;20047;-64
2023/03/26 03:59:24;;;;;;;12.27;2.92;;;9.50;99.90;;;;;;5138303;27;20043;-63
2023/03/26 04:01:50;;;;;;;10.45;2.63;;;9.50;99.90;;;;;;5139157;27;20026;-63
2023/03/26 04:04:25;;;;;;;16.52;3.10;;;9.50;99.90;;;;;;5122114;27;20023;-62
2023/03/26 04:06:58;;;;;;;21.30;2.97;;;9.50;99.90;;;;;;5137921;27;20034;-62
2023/03/26 04:09:29;;;;;;;12.75;2.95;;;9.40;99.90;;;;;;5138168;27;20049;-62
2023/03/26 04:11:59;;;;;;;17.33;3.60;;;9.40;99.90;;;;;;5137994;27;20042;-63
2023/03/26 04:14:36;;;;;;;17.30;3.33;;;9.40;99.90;;;;;;5137808;27;20039;-63
2023/03/26 04:17:12;;;;;;;16.95;3.20;;;9.40;99.90;;;;;;5137598;27;20042;-63
2023/03/26 04:19:39;;;;;;;13.70;3.15;;;9.50;99.90;;;;;;5120667;27;20045;-63
2023/03/26 04:22:08;;;;;;;15.65;2.92;;;9.40;99.90;;;;;;5137584;27;20035;-63
2023/03/26 04:24:40;;;;;;;18.75;3.13;;;9.50;99.90;;;;;;5137653;27;20092;-63
2023/03/26 04:27:13;;;;;;;14.65;2.67;;;9.40;99.90;;;;;;5138588;27;20043;-63
2023/03/26 04:29:43;;;;;;;20.60;3.38;;;9.50;99.90;;;;;;5137532;27;20027;-62
2023/03/26 04:32:25;;;;;;;16.92;3.03;;;9.50;99.90;;;;;;5137425;27;20110;-63
2023/03/26 04:34:52;;;;;;;16.60;2.90;;;9.40;99.90;;;;;;5137451;27;20024;-62
2023/03/26 04:37:26;;;;;;;15.55;2.97;;;9.40;99.90;;;;;;5137481;27;20361;-62
2023/03/26 04:40:07;;;;;;;15.52;3.25;;;9.30;99.90;;;;;;5137185;27;20019;-63
2023/03/26 04:42:49;;;;;;;21.65;3.40;;;9.30;99.90;;;;;;5136522;27;20024;-63
2023/03/26 04:45:24;;;;;;;9.57;3.10;;;9.30;99.90;;;;;;5137237;27;20360;-63
2023/03/26 04:47:58;;;;;;;14.50;2.70;;;9.30;99.90;;;;;;5120976;27;20028;-63
2023/03/26 04:50:25;;;;;;;15.20;3.78;;;9.20;99.90;;;;;;5137198;27;20030;-63
2023/03/26 04:52:54;;;;;;;22.08;3.25;;;9.20;99.90;;;;;;5137331;27;20401;-62
2023/03/26 04:56:05;;;;;;;14.52;3.08;;;9.10;99.90;;;;;;5055256;28;20033;-63
2023/03/26 04:59:00;;;;;;;17.55;3.42;;;9.10;99.90;;;;;;5137461;28;20035;-63
2023/03/26 05:01:27;;;;;;;17.75;3.00;;;9.20;99.90;;;;;;5137332;28;20084;-63
2023/03/26 05:03:54;;;;;;;11.77;2.53;;;9.20;99.90;;;;;;5137035;28;20023;-64
2023/03/26 05:06:21;;;;;;;15.75;3.40;;;9.30;99.90;;;;;;5121046;28;20039;-64
2023/03/26 05:08:47;;;;;;;15.30;2.72;;;9.20;99.90;;;;;;5137224;28;20361;-63
2023/03/26 05:11:29;;;;;;;13.65;2.70;;;9.20;99.90;;;;;;5137192;28;20031;-63
2023/03/26 05:13:56;;;;;;;14.07;2.47;;;9.20;99.90;;;;;;5119851;28;20043;-64
2023/03/26 05:16:23;;;;;;;17.00;2.53;;;9.20;99.90;;;;;;5136916;28;20057;-63
2023/03/26 05:18:55;;;;;;;13.77;2.63;;;9.20;99.90;;;;;;5136872;28;20110;-64
2023/03/26 05:21:22;;;;;;;14.48;2.75;;;9.10;99.90;;;;;;5120074;28;20031;-62
2023/03/26 05:23:48;;;;;;;18.67;2.97;;;9.20;99.90;;;;;;5119799;28;20019;-62
2023/03/26 05:26:18;;;;;;;11.63;2.80;;;9.20;99.90;;;;;;5136793;28;20031;-63
2023/03/26 05:28:44;;;;;;;14.95;2.95;;;9.30;99.90;;;;;;5136887;28;20110;-62
2023/03/26 05:31:22;;;;;;;13.23;2.50;;;9.30;99.90;;;;;;5120922;28;20031;-62
2023/03/26 05:33:51;;;;;;;16.88;2.70;;;9.30;99.90;;;;;;5136819;28;20056;-62
2023/03/26 05:36:18;;;;;;;24.58;3.45;;;9.20;99.90;;;;;;5137562;27;20114;-62
2023/03/26 05:38:52;;;;;;;17.20;3.05;;;9.20;99.90;;;;;;5120879;28;20030;-63
2023/03/26 05:41:37;;;;;;;16.05;3.40;;;9.20;99.90;;;;;;5137203;27;20047;-62
2023/03/26 05:44:04;;;;;;;15.38;2.92;;;9.20;99.90;;;;;;5137765;27;20031;-63
2023/03/26 05:46:30;;;;;;;15.23;3.05;;;9.10;99.90;;;;;;5137319;27;20034;-63
2023/03/26 05:48:56;;;;;;;21.83;3.15;;;9.20;99.90;;;;;;5136583;28;20445;-63
2023/03/26 05:51:23;;;;;;;10.30;2.58;;;9.20;99.90;;;;;;5119532;28;20057;-63
2023/03/26 05:53:59;;;;;;;18.60;3.42;;;9.40;99.90;;;;;;5137802;27;20042;-63
2023/03/26 05:56:59;;;;;;;13.73;3.28;;;9.30;99.90;;;;;;5128006;27;20050;-64
2023/03/26 05:59:44;;;;;;;19.08;3.38;;;9.30;99.90;;;;;;5141106;27;20049;-64
2023/03/26 06:02:16;;;;;;;16.20;3.05;;;9.30;99.90;;;;;;5140867;27;20292;-63
2023/03/26 06:05:14;;;;;;;16.50;3.13;;;9.30;99.90;;;;;;5140859;27;20102;-64
2023/03/26 06:08:00;;;;;;;14.90;3.00;;;9.20;99.90;;;;;;5126397;27;20043;-64
2023/03/26 06:10:36;;;;;;;15.65;2.88;;;9.20;99.90;;;;;;5124222;27;20031;-64
2023/03/26 06:13:02;;;;;;;15.75;3.08;;;9.40;99.90;;;;;;5141115;27;20031;-63
2023/03/26 06:15:28;;;;;;;13.57;3.25;;;9.50;99.90;;;;;;5140454;27;20035;-63
2023/03/26 06:18:05;;;;;;;15.02;2.63;;;9.40;99.90;;;;;;5140830;27;20031;-64
2023/03/26 06:20:31;;;;;;;11.75;3.22;;;9.30;99.90;;;;;;5140949;27;20117;-63
2023/03/26 06:22:59;;;;;;;14.07;3.20;;;9.20;99.90;;;;;;5139976;27;20111;-63
2023/03/26 06:25:49;;;;;;;13.75;3.13;;;9.30;99.90;;;;;;5140275;27;20038;-63
2023/03/26 06:28:24;;;;;;;10.57;2.78;;;9.40;99.90;;;;;;5124020;27;20027;-63
2023/03/26 06:31:10;;;;;;;13.27;2.63;;;9.30;99.90;;;;;;5129820;27;20047;-62
2023/03/26 06:33:42;;;;;;;11.50;3.08;;;9.40;99.90;;;;;;5140562;27;20043;-62
2023/03/26 06:36:10;;;;;;;10.95;3.17;;;9.30;99.90;;;;;;5139983;27;20035;-62
2023/03/26 06:38:36;;;;;;;12.73;3.42;;;9.40;99.90;;;;;;5139629;27;20092;-62
2023/03/26 06:41:05;;;;;;;11.73;3.00;;;9.40;99.90;;;;;;5139364;27;20047;-62
2023/03/26 06:43:35;;;;;;;10.23;2.63;;;9.30;99.90;;;;;;5139946;27;20126;-62
2023/03/26 06:46:13;;;;;;;13.60;2.65;;;9.10;99.90;;;;;;5140380;27;20027;-62
2023/03/26 06:49:01;;;;;;;12.88;2.05;;;9.10;99.90;;;;;;5129352;27;20062;-63
2023/03/26 06:51:54;;;;;;;;;;;8.90;99.90;;;;;;5141017;27;20035;-62
2023/03/26 06:54:46;;;;;;;8.23;1.85;;;9.00;99.90;;;;;;5123812;27;19912;-62
2023/03/26 06:57:36;;;;;;;7.30;2.13;;;9.00;99.90;;;;;;5139861;27;20058;-62
2023/03/26 07:00:20;;;;;;;9.82;2.40;;;9.00;99.90;;;;;;5140609;27;20062;-63
2023/03/26 07:03:05;;;;;;;7.03;1.70;;;9.10;99.90;;;;;;5140077;27;20369;-63
2023/03/26 07:05:50;;;;;;;9.00;2.08;;;9.20;99.90;;;;;;5139799;27;20303;-63
2023/03/26 07:08:55;;;;;;;8.50;1.88;;;9.30;99.90;;;;;;5139755;27;20073;-62
2023/03/26 07:11:39;;;;;;;9.70;1.65;;;9.50;99.90;;;;;;5140595;27;20099;-62
2023/03/26 07:14:31;;;;;;;4.05;1.30;;;9.60;99.90;;;;;;5139671;27;20114;-62
2023/03/26 07:17:26;;;;;;;9.27;1.55;;;9.60;99.90;;;;;;5054202;27;20056;-62
2023/03/26 07:20:11;;;;;;;10.75;1.92;;;9.50;99.90;;;;;;5139068;27;20038;-61
2023/03/26 07:22:37;;;;;;;7.13;1.60;;;9.40;99.90;;;;;;5139655;27;20042;-62
2023/03/26 07:25:03;;;;;;;6.75;1.55;;;9.40;99.90;;;;;;5139573;27;20119;-61
2023/03/26 07:28:26;;;;;;;4.88;1.60;;;9.30;99.90;;;;;;5139366;27;20473;-61
2023/03/26 07:31:18;;;;;;;8.27;1.70;;;9.30;99.90;;;;;;5102069;27;20047;-62
2023/03/26 07:33:55;;;;;;;9.00;2.08;;;9.40;99.90;;;;;;5138590;27;20074;-61
2023/03/26 07:37:02;;;;;;;8.07;2.00;;;9.40;99.90;;;;;;5139362;27;20362;-62
2023/03/26 07:39:54;;;;;;;;;;;9.50;99.90;;;;;;5139098;27;20367;-62
2023/03/26 07:42:35;;;;;;;9.95;1.88;;;9.60;99.90;;;;;;5122369;27;19915;-61
2023/03/26 07:45:43;;;;;;;9.50;2.08;;;9.80;99.90;;;;;;5056546;28;20033;-61
2023/03/26 07:48:46;;;;;;;6.85;1.63;;;9.70;99.90;;;;;;5028673;28;20041;-62
2023/03/26 07:51:39;;;;;;;7.93;1.83;;;9.70;99.90;;;;;;5129162;27;20066;-62
2023/03/26 07:54:34;;;;;;;11.43;1.70;;;9.60;99.90;;;;;;5121054;27;20047;-62
2023/03/26 07:57:53;;;;;;;4.97;1.52;;;9.50;99.90;;;;;;5114684;27;20039;-62
2023/03/26 08:00:50;;;;;;;7.57;1.65;;;9.70;99.90;;;;;;5138039;27;20090;-62
2023/03/26 08:03:41;;;;;;;3.92;1.60;;;9.70;99.90;;;;;;5137824;27;20383;-62
2023/03/26 08:06:47;;;;;;;9.07;2.13;;;9.60;99.90;;;;;;5137878;27;20096;-63
2023/03/26 08:10:08;;;;;;;7.82;2.30;;;9.50;99.90;;;;;;5056032;28;20032;-61
2023/03/26 08:13:23;;;;;;;9.80;2.40;;;9.40;99.90;;;;;;5123118;27;20091;-61
2023/03/26 08:15:59;;;;;;;8.13;1.95;;;9.40;99.90;;;;;;5138465;27;20050;-61
2023/03/26 08:18:40;;;;;;;10.93;2.13;;;9.50;99.90;;;;;;5138372;27;20034;-61
2023/03/26 08:21:19;;;;;;;8.35;2.10;;;9.60;99.90;;;;;;5138990;27;20096;-61
2023/03/26 08:24:08;;;;;;;4.28;1.50;;;9.70;99.90;;;;;;5138318;27;20106;-61
2023/03/26 08:26:54;;;;;;;9.68;1.80;;;9.70;99.90;;;;;;5138789;27;20034;-61
2023/03/26 08:29:31;;;;;;;7.55;1.63;;;9.70;99.90;;;;;;5138327;27;20027;-62
2023/03/26 08:31:58;;;;;;;7.18;1.35;;;9.80;99.90;;;;;;5138105;27;20034;-61
2023/03/26 08:34:24;;;;;;;7.22;1.98;;;9.70;99.90;;;;;;5138442;27;20279;-61
2023/03/26 08:36:50;;;;;;;8.82;1.85;;;9.70;99.90;;;;;;5137912;27;20030;-61
2023/03/26 08:39:21;;;;;;;8.18;1.75;;;9.90;99.90;;;;;;5137264;27;20049;-61
2023/03/26 08:42:17;;;;;;;7.72;1.90;;;9.90;99.90;;;;;;5137882;27;20047;-61
2023/03/26 08:45:14;;;;;;;8.18;4.40;;;9.90;99.90;;;;;;5137095;27;20034;-61
2023/03/26 08:47:57;;;;;;;8.07;2.20;;;9.90;99.90;;;;;;5138048;27;20053;-61
2023/03/26 08:50:43;;;;;;;5.65;1.70;;;9.80;99.90;;;;;;5137110;27;20062;-61
2023/03/26 08:53:19;;;;;;;8.40;1.92;;;9.70;99.90;;;;;;5138165;27;20295;-62
2023/03/26 08:55:58;;;;;;;5.25;1.20;;;9.70;99.90;;;;;;5137231;27;20023;-61
2023/03/26 08:59:01;;;;;;;5.63;1.98;;;9.80;99.90;;;;;;5136923;27;20058;-61
2023/03/26 09:01:55;;;;;;;7.78;1.65;;;10.00;99.90;;;;;;5137842;28;20023;-61
2023/03/26 09:05:10;;;;;;;4.50;1.40;;;10.00;99.90;;;;;;5132053;28;20043;-61
2023/03/26 09:08:02;;;;;;;4.40;1.40;;;9.90;99.90;;;;;;5132999;27;20084;-61
2023/03/26 09:10:34;;;;;;;4.90;1.30;;;9.80;99.90;;;;;;5138130;27;20137;-60
2023/03/26 09:13:31;;;;;;;5.93;1.43;;;10.00;99.90;;;;;;5138061;27;20030;-59
2023/03/26 09:16:47;;;;;;;3.50;1.25;;;9.90;99.90;;;;;;5137730;27;20344;-60
2023/03/26 09:19:52;;;;;;;4.25;1.48;;;9.70;99.90;;;;;;5058430;28;20048;-60
2023/03/26 09:22:36;;;;;;;5.03;1.75;;;9.70;99.90;;;;;;5137064;28;20091;-59
2023/03/26 09:25:23;;;;;;;4.55;1.75;;;9.80;99.90;;;;;;5138047;27;20047;-60
2023/03/26 09:28:40;;;;;;;4.40;1.58;;;10.00;99.90;;;;;;5136818;27;20042;-59
2023/03/26 09:31:24;;;;;;;4.25;1.27;;;9.80;99.90;;;;;;5107620;27;20049;-60
2023/03/26 09:33:58;;;;;;;6.65;1.58;;;9.90;99.90;;;;;;5141700;27;20095;-60
2023/03/26 09:36:54;;;;;;;4.85;1.70;;;10.00;99.90;;;;;;5141998;27;20361;-60
2023/03/26 09:39:23;;;;;;;4.35;1.10;;;10.00;99.90;;;;;;5141471;27;20027;-60
2023/03/26 09:42:02;;;;;;;4.05;0.80;;;10.00;99.90;;;;;;5141505;27;20058;-59
2023/03/26 09:45:07;;;;;;;3.85;1.02;;;10.10;99.90;;;;;;5141750;27;20277;-59
2023/03/26 09:47:58;;;;;;;3.33;1.17;;;9.80;99.90;;;;;;5141399;27;20041;-59
2023/03/26 09:50:53;;;;;;;2.58;0.90;;;9.90;99.90;;;;;;5141362;27;20027;-58
2023/03/26 09:53:28;;;;;;;3.95;1.08;;;10.20;99.90;;;;;;5140999;27;20040;-58
2023/03/26 09:56:25;;;;;;;3.85;1.05;;;10.40;99.90;;;;;;5141389;27;20034;-58
2023/03/26 09:59:30;;;;;;;2.95;1.00;;;10.60;99.90;;;;;;5141123;27;20336;-59
2023/03/26 10:02:24;;;;;;;4.43;1.25;;;10.70;99.90;;;;;;5136995;27;20308;-59
2023/03/26 10:05:12;;;;;;;5.22;1.23;;;10.50;99.90;;;;;;5141271;27;20314;-59
2023/03/26 10:07:57;;;;;;;2.47;1.00;;;10.60;99.90;;;;;;5140246;27;20030;-58
2023/03/26 10:10:49;;;;;;;5.72;1.40;;;10.60;99.90;;;;;;5141667;27;20035;-59
2023/03/26 10:13:42;;;;;;;2.80;1.50;;;10.40;99.90;;;;;;5140957;27;20035;-59
2023/03/26 10:16:20;;;;;;;;;;;10.80;99.90;;;;;;5141344;27;20261;-60
2023/03/26 10:19:11;;;;;;;3.72;1.10;;;10.70;99.90;;;;;;5140748;27;19915;-59
2023/03/26 10:22:08;;;;;;;3.38;1.42;;;10.70;99.90;;;;;;5140798;27;20059;-59
2023/03/26 10:25:11;;;;;;;3.85;1.23;;;10.70;99.90;;;;;;5140476;27;20342;-59
2023/03/26 10:28:11;;;;;;;5.55;1.40;;;11.00;99.90;;;;;;5139588;27;20027;-59
2023/03/26 10:31:33;;;;;;;2.13;0.90;;;11.50;99.90;;;;;;5141123;27;20123;-59
2023/03/26 10:34:26;;;;;;;3.03;1.70;;;11.70;99.90;;;;;;5061053;28;20033;-59
2023/03/26 10:36:56;;;;;;;3.53;1.45;;;11.90;99.90;;;;;;5077827;28;20037;-59
2023/03/26 10:39:33;;;;;;;2.47;1.00;;;11.80;99.90;;;;;;5128270;27;20039;-58
2023/03/26 10:42:08;;;;;;;3.42;1.35;;;11.60;99.90;;;;;;5139418;27;20331;-60
2023/03/26 10:45:08;;;;;;;2.72;0.80;;;11.90;99.90;;;;;;5139498;27;20063;-59
2023/03/26 10:47:46;;;;;;;3.08;0.88;;;11.70;96.40;;;;;;5140655;27;20027;-60
2023/03/26 10:50:36;;;;;;;3.60;1.08;;;11.50;99.90;;;;;;5140403;27;20280;-60
2023/03/26 10:53:31;;;;;;;3.00;1.05;;;11.80;99.90;;;;;;5140233;27;20338;-59
2023/03/26 10:56:16;;;;;;;2.08;0.88;;;11.90;99.90;;;;;;5140175;27;20023;-59
2023/03/26 10:58:42;;;;;;;3.33;1.00;;;11.80;96.80;;;;;;5139166;27;20027;-60
2023/03/26 11:01:38;;;;;;;1.02;0.80;;;12.00;97.90;;;;;;5122013;27;20110;-59
2023/03/26 11:04:36;;;;;;;2.55;0.85;;;12.40;97.70;;;;;;5131441;27;20119;-60
2023/03/26 11:07:08;;;;;;;2.22;0.77;;;12.60;92.30;;;;;;5139182;27;20036;-59
2023/03/26 11:09:34;;;;;;;1.63;0.50;;;12.80;87.20;;;;;;5139938;27;20314;-59
2023/03/26 11:12:27;;;;;;;2.15;0.90;;;12.80;82.70;;;;;;5139371;27;20023;-60
2023/03/26 11:15:26;;;;;;;1.75;0.80;;;12.40;78.00;;;;;;5140448;27;20026;-59
2023/03/26 11:18:21;;;;;;;1.55;0.90;;;12.00;93.80;;;;;;5135237;27;20322;-59
2023/03/26 11:21:07;;;;;;;1.75;0.73;;;12.00;98.50;;;;;;5139071;27;20015;-59
2023/03/26 11:23:52;;;;;;;1.50;0.90;;;12.10;94.60;;;;;;5138798;27;20015;-60
2023/03/26 11:26:43;;;;;;;1.38;0.95;;;12.20;92.50;;;;;;5139493;27;20096;-60
2023/03/26 11:29:33;;;;;;;1.40;0.80;;;12.30;94.80;;;;;;5139541;27;20027;-59
2023/03/26 11:32:13;;;;;;;1.23;0.90;;;12.50;92.20;;;;;;5139389;27;20027;-59
2023/03/26 11:34:53;;;;;;;1.85;1.15;;;12.60;90.20;;;;;;5138856;27;20035;-59
2023/03/26 11:37:33;;;;;;;1.95;0.90;;;12.80;92.30;;;;;;5139185;27;20034;-59
2023/03/26 11:40:05;;;;;;;3.00;1.08;;;12.80;92.70;;;;;;5138278;27;20031;-59
2023/03/26 11:42:31;;;;;;;1.98;0.80;;;12.90;91.10;;;;;;5139502;27;20273;-59
2023/03/26 11:45:18;;;;;;;1.38;0.80;;;12.80;83.10;;;;;;5139227;27;20036;-58
2023/03/26 11:47:50;;;;;;;0.95;0.60;;;12.80;76.20;;;;;;5138422;27;20027;-59
2023/03/26 11:50:31;;;;;;;2.05;0.75;;;12.70;63.30;;;;;;5138263;27;20400;-60
2023/03/26 11:53:05;;;;;;;1.90;1.10;;;12.60;82.40;;;;;;5138609;27;20288;-59
2023/03/26 11:55:31;;;;;;;2.83;1.10;;;12.60;74.20;;;;;;5139748;27;20406;-59
2023/03/26 11:57:59;;;;;;;1.35;0.60;;;12.60;76.70;;;;;;5137883;27;20039;-59
2023/03/26 12:00:27;;;;;;;1.58;1.20;;;12.60;78.90;;;;;;5139417;27;20036;-60
2023/03/26 12:02:57;;;;;;;1.45;1.13;;;12.90;75.50;;;;;;5139092;27;20099;-59
2023/03/26 12:05:35;;;;;;;1.65;0.80;;;13.30;65.40;;;;;;5137935;27;20032;-60
2023/03/26 12:08:03;;;;;;;1.30;0.75;;;13.60;64.20;;;;;;5138700;27;20419;-59
2023/03/26 12:10:38;;;;;;;0.70;0.60;;;13.90;55.50;;;;;;5138661;27;20027;-60
2023/03/26 12:13:34;;;;;;;0.70;0.70;;;14.20;51.80;;;;;;5137714;27;20330;-59
2023/03/26 12:16:17;;;;;;;0.98;0.50;;;14.40;48.10;;;;;;5137870;27;20027;-59
2023/03/26 12:18:44;;;;;;;2.08;0.50;;;14.40;38.30;;;;;;5138446;27;20034;-60
2023/03/26 12:21:17;;;;;;;0.38;0.30;;;14.50;42.30;;;;;;5139277;27;20083;-59
2023/03/26 12:23:55;;;;;;;0.90;0.47;;;14.60;23.40;;;;;;5138411;27;20131;-60
2023/03/26 12:26:47;;;;;;;0.40;0.35;;;14.50;23.80;;;;;;5138310;27;20030;-60
2023/03/26 12:29:17;;;;;;;1.08;0.32;;;14.10;17.20;;;;;;5137676;27;20023;-59
2023/03/26 12:31:55;;;;;;;0.98;0.90;;;13.70;35.60;;;;;;5138491;27;20477;-59
2023/03/26 12:34:33;;;;;;;0.60;0.30;;;13.40;48.40;;;;;;5138238;27;20059;-59
2023/03/26 12:36:59;;;;;;;0.55;0.50;;;13.50;39.50;;;;;;5138251;27;20035;-60
2023/03/26 12:39:29;;;;;;;0.60;0.55;;;13.20;45.50;;;;;;5137667;27;20031;-60
2023/03/26 12:42:01;;;;;;;0.60;0.40;;;13.10;51.00;;;;;;5137360;27;20047;-60
2023/03/26 12:44:43;;;;;;;0.50;0.30;;;13.20;57.50;;;;;;5138149;27;20079;-59
2023/03/26 12:47:31;;;;;;;0.93;0.40;;;13.30;51.10;;;;;;5138664;27;20027;-59
2023/03/26 12:49:57;;;;;;;0.43;0.40;;;13.20;45.50;;;;;;5138072;27;20352;-60
2023/03/26 12:52:39;;;;;;;0.75;0.45;;;13.10;57.60;;;;;;5138045;27;20046;-61
2023/03/26 12:55:08;;;;;;;0.60;0.30;;;12.90;57.80;;;;;;5137421;27;20126;-60
2023/03/26 12:57:46;;;;;;;1.35;0.50;;;13.00;67.30;;;;;;5138263;27;20277;-59
2023/03/26 13:00:18;;;;;;;0.77;0.50;;;13.00;73.00;;;;;;5137973;27;20015;-60
2023/03/26 13:03:23;;;;;;;0.80;0.40;;;13.00;73.90;;;;;;5137588;27;20027;-59
2023/03/26 13:06:09;;;;;;;1.48;0.88;;;12.90;74.40;;;;;;5137790;28;20023;-60
2023/03/26 13:08:57;;;;;;;2.63;0.88;;;12.90;64.80;;;;;;5137038;28;20034;-60
2023/03/26 13:12:00;;;;;;;2.13;0.77;;;12.80;63.10;;;;;;5137807;27;20039;-59
2023/03/26 13:14:52;;;;;;;2.00;1.05;;;12.70;72.60;;;;;;5137663;28;20041;-60
2023/03/26 13:17:55;;;;;;;2.50;0.80;;;12.60;76.60;;;;;;5137515;27;20407;-59
2023/03/26 13:20:39;;;;;;;1.73;0.80;;;12.60;72.00;;;;;;5108256;28;20035;-60
2023/03/26 13:23:06;;;;;;;;;;;12.30;76.20;;;;;;5138428;28;20029;-59
2023/03/26 13:26:01;;;;;;;1.50;0.80;;;12.20;83.70;;;;;;5137695;27;20165;-60
2023/03/26 13:28:42;;;;;;;2.08;0.90;;;12.00;85.90;;;;;;5137637;27;20038;-60
2023/03/26 13:31:30;;;;;;;2.20;0.98;;;11.90;90.80;;;;;;5136798;28;20031;-59
2023/03/26 13:34:07;;;;;;;2.08;1.20;;;11.90;90.70;;;;;;5137572;27;20027;-59
2023/03/26 13:37:02;;;;;;;2.15;1.10;;;11.90;91.90;;;;;;5137134;27;20072;-58
2023/03/26 13:39:32;;;;;;;2.55;1.08;;;11.70;91.90;;;;;;5136736;27;20388;-59
2023/03/26 13:42:35;;;;;;;2.20;1.10;;;11.50;92.80;;;;;;5137346;27;20043;-61
2023/03/26 13:45:23;;;;;;;1.65;1.10;;;11.60;95.00;;;;;;5137552;27;20019;-61
2023/03/26 13:47:53;;;;;;;2.55;1.50;;;11.50;94.60;;;;;;5137615;28;20291;-60
2023/03/26 13:50:30;;;;;;;2.03;1.30;;;11.60;96.00;;;;;;5138020;27;20030;-60
2023/03/26 13:53:05;;;;;;;2.60;2.20;;;11.70;95.60;;;;;;5137371;27;20015;-60
2023/03/26 13:55:44;;;;;;;3.72;1.40;;;11.70;96.40;;;;;;5136804;28;20110;-60